createdAt,value
2023-03-08T00:02:23.008Z,94741.94
2023-03-08T00:04:50.604Z,94741.25
2023-03-08T00:07:18.136Z,94743.91
2023-03-08T00:09:46.951Z,94729.94
2023-03-08T00:12:14.422Z,94745.50
2023-03-08T00:14:42.067Z,94746.53
2023-03-08T00:17:09.568Z,94749.25
2023-03-08T00:19:37.224Z,94754.59
2023-03-08T00:22:04.689Z,94757.97
2023-03-08T00:24:32.228Z,94756.66
2023-03-08T00:27:01.294Z,94756.53
2023-03-08T00:29:28.776Z,94748.66
2023-03-08T00:31:56.273Z,94758.91
2023-03-08T00:34:23.833Z,94758.53
2023-03-08T00:36:51.305Z,94758.63
2023-03-08T00:39:18.796Z,94758.03
2023-03-08T00:41:46.268Z,94755.63
2023-03-08T00:44:15.067Z,94761.09
2023-03-08T00:46:42.620Z,94761.53
2023-03-08T00:49:10.599Z,94760.50
2023-03-08T00:51:38.110Z,94759.94
2023-03-08T00:54:05.800Z,94761.91
2023-03-08T00:56:33.257Z,94760.53
2023-03-08T00:59:00.745Z,94748.03
2023-03-08T01:01:29.565Z,94754.72
2023-03-08T01:03:57.047Z,94756.75
2023-03-08T01:06:24.664Z,94748.41
2023-03-08T01:08:52.408Z,94747.09
2023-03-08T01:11:22.295Z,94758.16
2023-03-08T01:13:51.163Z,94755.06
2023-03-08T01:16:20.537Z,94744.19
2023-03-08T01:18:49.843Z,94754.69
2023-03-08T01:21:17.789Z,94746.09
2023-03-08T01:23:45.321Z,94744.19
2023-03-08T01:26:14.973Z,94746.72
2023-03-08T01:28:42.863Z,94749.44
2023-03-08T01:31:14.134Z,94746.47
2023-03-08T01:33:42.472Z,94739.53
2023-03-08T01:36:14.873Z,94746.16
2023-03-08T01:38:43.075Z,94745.88
2023-03-08T01:41:16.197Z,94744.22
2023-03-08T01:43:43.642Z,94743.47
2023-03-08T01:46:25.228Z,94743.56
2023-03-08T01:48:56.818Z,94732.16
2023-03-08T01:51:33.916Z,94736.63
2023-03-08T01:54:05.229Z,94730.03
2023-03-08T01:56:33.428Z,94738.38
2023-03-08T01:59:02.386Z,94744.19
2023-03-08T02:01:30.131Z,94738.94
2023-03-08T02:03:57.669Z,94739.53
2023-03-08T02:06:25.161Z,94741.47
2023-03-08T02:08:54.107Z,94733.38
2023-03-08T02:11:23.500Z,94736.50
2023-03-08T02:13:52.014Z,94724.50
2023-03-08T02:16:19.739Z,94723.75
2023-03-08T02:18:55.112Z,94723.91
2023-03-08T02:21:23.583Z,94722.88
2023-03-08T02:23:52.454Z,94715.31
2023-03-08T02:26:20.366Z,94720.69
2023-03-08T02:28:47.983Z,94727.31
2023-03-08T02:31:16.477Z,94725.25
2023-03-08T02:33:44.018Z,94725.09
2023-03-08T02:36:11.976Z,94713.47
2023-03-08T02:38:39.633Z,94715.00
2023-03-08T02:41:08.519Z,94715.44
2023-03-08T02:43:36.000Z,94712.47
2023-03-08T02:46:03.492Z,94720.03
2023-03-08T02:48:30.960Z,94715.81
2023-03-08T02:50:58.438Z,94716.78
2023-03-08T02:53:25.920Z,94716.78
2023-03-08T02:55:53.428Z,94709.72
2023-03-08T02:58:22.265Z,94721.00
2023-03-08T03:00:49.792Z,94715.84
2023-03-08T03:03:18.358Z,94714.41
2023-03-08T03:05:46.130Z,94714.63
2023-03-08T03:08:13.754Z,94719.41
2023-03-08T03:10:41.668Z,94716.78
2023-03-08T03:13:09.430Z,94719.03
2023-03-08T03:15:40.550Z,94724.84
2023-03-08T03:18:08.482Z,94729.81
2023-03-08T03:20:36.009Z,94729.06
2023-03-08T03:23:03.600Z,94725.91
2023-03-08T03:25:31.293Z,94734.63
2023-03-08T03:27:58.787Z,94723.03
2023-03-08T03:30:26.302Z,94727.53
2023-03-08T03:32:55.162Z,94731.13
2023-03-08T03:35:22.693Z,94738.03
2023-03-08T03:37:50.182Z,94728.84
2023-03-08T03:40:18.058Z,94730.34
2023-03-08T03:42:45.534Z,94740.16
2023-03-08T03:45:12.990Z,94730.69
2023-03-08T03:47:40.489Z,94732.47
2023-03-08T03:50:10.962Z,94729.38
2023-03-08T03:52:38.450Z,94737.91
2023-03-08T03:55:07.376Z,94732.78
2023-03-08T03:57:34.888Z,94735.25
2023-03-08T04:00:02.381Z,94736.06
2023-03-08T04:02:30.198Z,94733.91
2023-03-08T04:04:57.718Z,94731.16
2023-03-08T04:07:26.556Z,94726.25
2023-03-08T04:09:54.066Z,94724.47
2023-03-08T04:12:23.742Z,94726.13
2023-03-08T04:14:51.216Z,94719.66
2023-03-08T04:17:18.750Z,94718.84
2023-03-08T04:19:46.258Z,94706.53
2023-03-08T04:22:13.738Z,94705.19
2023-03-08T04:24:42.553Z,94708.41
2023-03-08T04:27:10.092Z,94702.69
2023-03-08T04:29:37.544Z,94706.31
2023-03-08T04:32:05.717Z,94706.03
2023-03-08T04:34:33.221Z,94698.09
2023-03-08T04:37:00.700Z,94706.69
2023-03-08T04:39:28.278Z,94697.72
2023-03-08T04:41:57.163Z,94704.44
2023-03-08T04:44:24.666Z,94702.50
2023-03-08T04:46:52.209Z,94711.75
2023-03-08T04:49:19.714Z,94705.25
2023-03-08T04:51:47.196Z,94700.25
2023-03-08T04:54:14.657Z,94701.94
2023-03-08T04:56:42.508Z,94701.13
2023-03-08T04:59:11.302Z,94692.66
2023-03-08T05:01:38.827Z,94688.81
2023-03-08T05:04:06.454Z,94687.41
2023-03-08T05:06:33.958Z,94677.06
2023-03-08T05:09:01.572Z,94670.41
2023-03-08T05:11:30.457Z,94678.03
2023-03-08T05:14:00.159Z,94673.41
2023-03-08T05:16:29.322Z,94666.16
2023-03-08T05:18:56.870Z,94664.06
2023-03-08T05:21:24.601Z,94666.50
2023-03-08T05:23:52.105Z,94659.00
2023-03-08T05:26:19.660Z,94661.69
2023-03-08T05:28:47.133Z,94650.91
2023-03-08T05:31:16.681Z,94650.38
2023-03-08T05:33:47.094Z,94644.16
2023-03-08T05:36:15.491Z,94650.84
2023-03-08T05:38:43.723Z,94649.22
2023-03-08T05:41:14.141Z,94647.78
2023-03-08T05:43:41.664Z,94637.16
2023-03-08T05:46:11.870Z,94629.81
2023-03-08T05:48:40.211Z,94630.97
2023-03-08T05:51:11.310Z,94624.97
2023-03-08T05:53:39.314Z,94623.91
2023-03-08T05:56:11.342Z,94619.56
2023-03-08T05:58:39.448Z,94620.19
2023-03-08T06:01:13.236Z,94633.63
2023-03-08T06:03:41.098Z,94626.13
2023-03-08T06:06:10.072Z,94623.88
2023-03-08T06:08:37.650Z,94619.50
2023-03-08T06:11:05.520Z,94621.06
2023-03-08T06:13:32.975Z,94627.03
2023-03-08T06:16:01.380Z,94636.16
2023-03-08T06:18:29.536Z,94653.03
2023-03-08T06:20:58.869Z,94661.66
2023-03-08T06:23:28.590Z,94654.03
2023-03-08T06:25:56.555Z,94657.56
2023-03-08T06:28:24.545Z,94659.19
2023-03-08T06:30:52.478Z,94663.44
2023-03-08T06:33:20.841Z,94671.31
2023-03-08T06:35:57.193Z,94673.16
2023-03-08T06:38:25.096Z,94666.09
2023-03-08T06:40:54.170Z,94681.50
2023-03-08T06:43:22.159Z,94681.84
2023-03-08T06:45:50.114Z,94676.75
2023-03-08T06:48:18.180Z,94669.00
2023-03-08T06:50:46.158Z,94662.03
2023-03-08T06:53:14.150Z,94664.66
2023-03-08T06:55:42.916Z,94661.38
2023-03-08T06:58:11.722Z,94654.69
2023-03-08T07:00:39.555Z,94660.31
2023-03-08T07:03:07.234Z,94656.25
2023-03-08T07:05:34.679Z,94661.16
2023-03-08T07:08:02.123Z,94658.19
2023-03-08T07:10:29.733Z,94659.19
2023-03-08T07:12:57.322Z,94665.59
2023-03-08T07:15:26.438Z,94653.63
2023-03-08T07:17:56.497Z,94655.88
2023-03-08T07:20:25.478Z,94653.44
2023-03-08T07:22:53.428Z,94640.75
2023-03-08T07:25:22.069Z,94646.06
2023-03-08T07:27:49.637Z,94650.66
2023-03-08T07:30:17.997Z,94639.97
2023-03-08T07:32:46.952Z,94638.91
2023-03-08T07:35:16.146Z,94639.16
2023-03-08T07:37:45.956Z,94638.09
2023-03-08T07:40:14.983Z,94642.59
2023-03-08T07:42:42.460Z,94632.78
2023-03-08T07:45:11.887Z,94629.81
2023-03-08T07:47:40.458Z,94624.03
2023-03-08T07:50:10.895Z,94613.97
2023-03-08T07:52:38.428Z,94611.22
2023-03-08T07:55:07.011Z,94617.03
2023-03-08T07:57:34.541Z,94620.34
2023-03-08T08:00:01.999Z,94616.38
2023-03-08T08:02:29.451Z,94609.09
2023-03-08T08:04:57.004Z,94610.06
2023-03-08T08:07:25.875Z,94617.41
2023-03-08T08:09:53.400Z,94609.38
2023-03-08T08:12:20.870Z,94611.44
2023-03-08T08:14:48.408Z,94609.47
2023-03-08T08:17:15.884Z,94611.53
2023-03-08T08:19:43.372Z,94597.66
2023-03-08T08:22:10.922Z,94594.50
2023-03-08T08:24:39.717Z,94604.53
2023-03-08T08:27:07.261Z,94604.81
2023-03-08T08:29:34.762Z,94606.41
2023-03-08T08:32:04.154Z,94594.59
2023-03-08T08:34:31.618Z,94585.25
2023-03-08T08:36:59.143Z,94588.03
2023-03-08T08:39:26.662Z,94593.56
2023-03-08T08:41:55.467Z,94599.28
2023-03-08T08:44:23.022Z,94603.06
2023-03-08T08:46:50.506Z,94592.59
2023-03-08T08:49:17.962Z,94585.63
2023-03-08T08:51:45.520Z,94575.19
2023-03-08T08:54:13.018Z,94567.69
2023-03-08T08:56:42.896Z,94563.47
2023-03-08T08:59:13.157Z,94559.63
2023-03-08T09:01:43.657Z,94549.25
2023-03-08T09:04:12.088Z,94551.91
2023-03-08T09:06:40.596Z,94538.56
2023-03-08T09:09:08.110Z,94533.44
2023-03-08T09:11:48.495Z,94535.47
2023-03-08T09:14:22.557Z,94522.25
2023-03-08T09:16:50.184Z,94527.81
2023-03-08T09:19:17.732Z,94542.19
2023-03-08T09:21:45.218Z,94539.94
2023-03-08T09:24:13.177Z,94537.31
2023-03-08T09:26:40.695Z,94528.63
2023-03-08T09:29:08.230Z,94518.13
2023-03-08T09:31:38.849Z,94510.44
2023-03-08T09:34:08.881Z,94509.13
2023-03-08T09:36:39.356Z,94507.88
2023-03-08T09:39:08.750Z,94484.09
2023-03-08T09:41:46.215Z,94481.22
2023-03-08T09:44:26.877Z,94465.53
2023-03-08T09:47:00.596Z,94460.47
2023-03-08T09:49:30.584Z,94456.91
2023-03-08T09:52:03.756Z,94447.97
2023-03-08T09:54:38.129Z,94448.94
2023-03-08T09:57:11.365Z,94446.81
2023-03-08T09:59:42.460Z,94438.63
2023-03-08T10:02:25.915Z,94429.28
2023-03-08T10:05:12.834Z,94427.34
2023-03-08T10:07:53.806Z,94426.34
2023-03-08T10:10:34.372Z,94413.41
2023-03-08T10:13:16.673Z,94408.66
2023-03-08T10:15:48.103Z,94406.66
2023-03-08T10:18:29.254Z,94394.00
2023-03-08T10:20:59.090Z,94373.59
2023-03-08T10:23:31.373Z,94366.69
2023-03-08T10:25:59.944Z,94363.53
2023-03-08T10:28:28.415Z,94378.13
2023-03-08T10:30:58.441Z,94375.03
2023-03-08T10:33:33.364Z,94385.16
2023-03-08T10:36:03.695Z,94376.63
2023-03-08T10:38:34.169Z,94369.59
2023-03-08T10:41:03.671Z,94365.72
2023-03-08T10:43:34.042Z,94369.34
2023-03-08T10:46:04.373Z,94366.72
2023-03-08T10:48:33.775Z,94364.94
2023-03-08T10:51:02.682Z,94371.00
2023-03-08T10:53:30.626Z,94369.03
2023-03-08T10:56:00.041Z,94368.41
2023-03-08T10:58:31.738Z,94382.47
2023-03-08T11:01:01.191Z,94373.31
2023-03-08T11:03:29.557Z,94376.06
2023-03-08T11:06:00.581Z,94355.66
2023-03-08T11:08:30.600Z,94359.53
2023-03-08T11:11:15.743Z,94349.72
2023-03-08T11:13:46.549Z,94354.94
2023-03-08T11:16:39.821Z,94351.34
2023-03-08T11:19:17.348Z,94363.44
2023-03-08T11:22:00.037Z,94350.63
2023-03-08T11:24:41.085Z,94353.97
2023-03-08T11:27:21.645Z,94334.97
2023-03-08T11:30:03.832Z,94343.81
2023-03-08T11:32:44.990Z,94338.56
2023-03-08T11:35:23.187Z,94337.28
2023-03-08T11:37:59.611Z,94332.34
2023-03-08T11:40:30.677Z,94330.69
2023-03-08T11:43:18.792Z,94314.31
2023-03-08T11:45:53.668Z,94322.03
2023-03-08T11:48:56.687Z,94321.94
2023-03-08T11:51:31.022Z,94312.91
2023-03-08T11:54:12.401Z,94303.63
2023-03-08T11:56:47.079Z,94302.97
2023-03-08T11:59:20.761Z,94305.66
2023-03-08T12:01:51.211Z,94307.38
2023-03-08T12:04:23.440Z,94293.38
2023-03-08T12:06:54.682Z,94290.28
2023-03-08T12:09:30.669Z,94295.19
2023-03-08T12:12:04.542Z,94287.63
2023-03-08T12:14:35.305Z,94277.22
2023-03-08T12:17:12.002Z,94276.81
2023-03-08T12:19:43.798Z,94282.53
2023-03-08T12:22:24.415Z,94277.16
2023-03-08T12:25:00.184Z,94270.53
2023-03-08T12:27:31.834Z,94271.69
2023-03-08T12:30:05.580Z,94237.34
2023-03-08T12:32:37.718Z,94255.66
2023-03-08T12:35:08.470Z,94255.66
2023-03-08T12:37:36.109Z,94250.19
2023-03-08T12:40:11.234Z,94247.50
2023-03-08T12:42:40.554Z,94250.56
2023-03-08T12:45:30.763Z,94236.22
2023-03-08T12:48:08.803Z,94227.84
2023-03-08T12:50:41.777Z,94238.22
2023-03-08T12:53:31.384Z,94225.72
2023-03-08T12:56:03.246Z,94216.41
2023-03-08T12:58:31.744Z,94234.19
2023-03-08T13:01:01.907Z,94227.19
2023-03-08T13:03:37.217Z,94212.63
2023-03-08T13:06:16.657Z,94212.84
2023-03-08T13:08:52.863Z,94210.25
2023-03-08T13:11:25.257Z,94206.59
2023-03-08T13:13:57.167Z,94197.16
2023-03-08T13:16:35.152Z,94198.59
2023-03-08T13:19:17.272Z,94196.16
2023-03-08T13:21:50.240Z,94200.16
2023-03-08T13:24:26.023Z,94202.78
2023-03-08T13:27:07.121Z,94194.84
2023-03-08T13:29:35.107Z,94192.44
2023-03-08T13:32:08.521Z,94196.94
2023-03-08T13:34:36.170Z,94197.47
2023-03-08T13:37:03.843Z,94187.03
2023-03-08T13:39:32.721Z,94201.72
2023-03-08T13:42:09.564Z,94202.72
2023-03-08T13:44:37.517Z,94193.50
2023-03-08T13:47:13.978Z,94199.56
2023-03-08T13:49:45.508Z,94192.00
2023-03-08T13:52:17.928Z,94191.81
2023-03-08T13:54:48.255Z,94184.28
2023-03-08T13:57:23.914Z,94189.13
2023-03-08T13:59:53.491Z,94176.34
2023-03-08T14:02:23.499Z,94175.31
2023-03-08T14:04:51.480Z,94181.72
2023-03-08T14:07:22.782Z,94173.56
2023-03-08T14:09:50.348Z,94170.56
2023-03-08T14:12:23.030Z,94174.72
2023-03-08T14:14:53.465Z,94174.94
2023-03-08T14:17:23.503Z,94171.00
2023-03-08T14:19:56.086Z,94159.09
2023-03-08T14:22:38.232Z,94155.97
2023-03-08T14:25:07.883Z,94156.22
2023-03-08T14:27:42.434Z,94134.97
2023-03-08T14:30:15.723Z,94141.25
2023-03-08T14:32:56.865Z,94144.63
2023-03-08T14:35:27.650Z,94142.59
2023-03-08T14:37:56.102Z,94137.75
2023-03-08T14:40:32.573Z,94136.56
2023-03-08T14:43:04.488Z,94143.47
2023-03-08T14:45:36.219Z,94137.75
2023-03-08T14:48:21.849Z,94128.28
2023-03-08T14:50:55.459Z,94125.75
2023-03-08T14:53:30.159Z,94118.28
2023-03-08T14:55:58.295Z,94116.03
2023-03-08T14:58:29.464Z,94110.13
2023-03-08T15:01:00.814Z,94100.75
2023-03-08T15:03:28.726Z,94095.47
2023-03-08T15:05:57.461Z,94089.56
2023-03-08T15:08:26.106Z,94090.94
2023-03-08T15:10:53.937Z,94094.72
2023-03-08T15:13:23.844Z,94081.34
2023-03-08T15:15:52.806Z,94071.06
2023-03-08T15:18:20.831Z,94075.06
2023-03-08T15:20:50.586Z,94063.22
2023-03-08T15:23:21.309Z,94059.97
2023-03-08T15:25:49.147Z,94053.53
2023-03-08T15:28:18.715Z,94058.06
2023-03-08T15:30:46.519Z,94053.28
2023-03-08T15:33:15.410Z,94055.41
2023-03-08T15:35:43.254Z,94045.97
2023-03-08T15:38:13.457Z,94047.16
2023-03-08T15:40:41.356Z,94057.97
2023-03-08T15:43:09.620Z,94057.88
2023-03-08T15:45:37.760Z,94053.63
2023-03-08T15:48:07.265Z,94064.88
2023-03-08T15:50:36.446Z,94063.78
2023-03-08T15:53:04.373Z,94054.88
2023-03-08T15:55:32.139Z,94055.44
2023-03-08T15:57:59.752Z,94052.69
2023-03-08T16:00:27.698Z,94053.69
2023-03-08T16:02:55.254Z,94053.88
2023-03-08T16:05:25.112Z,94048.81
2023-03-08T16:07:57.781Z,94058.63
2023-03-08T16:10:25.305Z,94058.97
2023-03-08T16:12:52.940Z,94063.38
2023-03-08T16:15:21.116Z,94090.97
2023-03-08T16:17:48.941Z,94089.81
2023-03-08T16:20:17.066Z,94104.03
2023-03-08T16:22:46.118Z,94104.03
2023-03-08T16:25:15.781Z,94086.03
2023-03-08T16:27:43.289Z,94084.88
2023-03-08T16:30:12.659Z,94084.28
2023-03-08T16:32:40.226Z,94074.69
2023-03-08T16:35:08.141Z,94059.06
2023-03-08T16:37:35.609Z,94061.25
2023-03-08T16:40:04.884Z,94047.28
2023-03-08T16:42:33.857Z,94040.72
2023-03-08T16:45:01.750Z,94046.06
2023-03-08T16:47:32.127Z,94041.00
2023-03-08T16:50:00.486Z,94046.16
2023-03-08T16:52:28.955Z,94046.34
2023-03-08T16:54:57.523Z,94048.81
2023-03-08T16:57:25.243Z,94043.38
2023-03-08T16:59:54.066Z,94031.91
2023-03-08T17:02:23.131Z,94030.59
2023-03-08T17:04:50.960Z,94041.25
2023-03-08T17:07:18.594Z,94038.88
2023-03-08T17:09:46.409Z,94036.78
2023-03-08T17:12:14.066Z,94040.72
2023-03-08T17:14:43.992Z,94037.44
2023-03-08T17:17:13.660Z,94035.09
2023-03-08T17:19:41.298Z,94036.94
2023-03-08T17:22:09.064Z,94025.28
2023-03-08T17:24:36.635Z,94024.91
2023-03-08T17:27:04.385Z,94039.69
2023-03-08T17:29:31.859Z,94041.25
2023-03-08T17:31:59.317Z,94043.75
2023-03-08T17:34:28.407Z,94053.97
2023-03-08T17:36:55.936Z,94053.91
2023-03-08T17:39:23.371Z,94049.72
2023-03-08T17:41:50.846Z,94064.94
2023-03-08T17:44:18.296Z,94062.69
2023-03-08T17:46:45.754Z,94068.63
2023-03-08T17:49:13.960Z,94067.38
2023-03-08T17:51:42.769Z,94069.16
2023-03-08T17:54:11.740Z,94060.47
2023-03-08T17:56:40.843Z,94044.03
2023-03-08T17:59:08.515Z,94050.88
2023-03-08T18:01:35.986Z,94050.47
2023-03-08T18:04:05.463Z,94061.91
2023-03-08T18:06:35.239Z,94062.50
2023-03-08T18:09:07.052Z,94052.19
2023-03-08T18:11:37.476Z,94068.34
2023-03-08T18:14:05.670Z,94060.84
2023-03-08T18:16:33.528Z,94051.56
2023-03-08T18:19:02.247Z,94037.09
2023-03-08T18:21:31.357Z,94052.16
2023-03-08T18:23:59.116Z,94046.78
2023-03-08T18:26:28.883Z,94043.53
2023-03-08T18:28:56.433Z,94041.38
2023-03-08T18:31:26.311Z,94040.97
2023-03-08T18:33:55.317Z,94045.69
2023-03-08T18:36:24.171Z,94040.63
2023-03-08T18:38:52.087Z,94040.03
2023-03-08T18:41:22.146Z,94051.31
2023-03-08T18:43:51.335Z,94062.84
2023-03-08T18:46:19.395Z,94070.59
2023-03-08T18:48:50.634Z,94071.66
2023-03-08T18:51:18.347Z,94059.25
2023-03-08T18:53:45.824Z,94071.25
2023-03-08T18:56:13.438Z,94083.88
2023-03-08T18:58:41.284Z,94074.69
2023-03-08T19:01:12.922Z,94066.53
2023-03-08T19:03:41.224Z,94069.41
2023-03-08T19:06:09.453Z,94072.28
2023-03-08T19:08:37.276Z,94058.44
2023-03-08T19:11:11.470Z,94053.75
2023-03-08T19:13:39.010Z,94049.25
2023-03-08T19:16:07.216Z,94064.09
2023-03-08T19:18:36.129Z,94067.50
2023-03-08T19:21:03.663Z,94060.38
2023-03-08T19:23:31.138Z,94063.47
2023-03-08T19:26:16.335Z,94048.22
2023-03-08T19:28:43.830Z,94045.72
2023-03-08T19:31:17.467Z,94046.13
2023-03-08T19:33:49.651Z,94046.53
2023-03-08T19:36:17.136Z,94053.28
2023-03-08T19:38:44.636Z,94055.94
2023-03-08T19:41:13.357Z,94054.69
2023-03-08T19:43:41.032Z,94048.00
2023-03-08T19:46:09.466Z,94038.34
2023-03-08T19:48:37.569Z,94031.31
2023-03-08T19:51:06.576Z,94040.88
2023-03-08T19:53:34.069Z,94043.34
2023-03-08T19:56:01.717Z,94037.28
2023-03-08T19:58:29.235Z,94044.78
2023-03-08T20:01:03.489Z,94048.47
2023-03-08T20:03:31.122Z,94057.00
2023-03-08T20:05:59.127Z,94040.13
2023-03-08T20:08:27.977Z,94053.75
2023-03-08T20:10:55.461Z,94057.97
2023-03-08T20:13:23.314Z,94049.00
2023-03-08T20:15:50.808Z,94041.25
2023-03-08T20:18:18.291Z,94040.38
2023-03-08T20:20:45.850Z,94036.94
2023-03-08T20:23:13.572Z,94031.25
2023-03-08T20:25:43.787Z,94042.06
2023-03-08T20:28:11.378Z,94033.13
2023-03-08T20:30:39.380Z,94033.16
2023-03-08T20:33:07.058Z,94028.25
2023-03-08T20:35:34.549Z,94012.94
2023-03-08T20:38:02.092Z,94021.53
2023-03-08T20:40:29.632Z,94019.97
2023-03-08T20:42:58.591Z,94029.28
2023-03-08T20:45:26.482Z,94028.94
2023-03-08T20:47:54.733Z,94025.75
2023-03-08T20:50:22.510Z,94027.63
2023-03-08T20:52:49.999Z,94019.69
2023-03-08T20:55:17.601Z,94032.66
2023-03-08T20:57:45.589Z,94018.03
2023-03-08T21:00:15.557Z,94028.06
2023-03-08T21:02:43.141Z,94006.25
2023-03-08T21:05:11.083Z,94011.56
2023-03-08T21:07:38.561Z,94000.84
2023-03-08T21:10:06.821Z,94001.47
2023-03-08T21:12:34.301Z,94013.47
2023-03-08T21:15:03.482Z,94011.81
2023-03-08T21:17:36.694Z,94005.09
2023-03-08T21:20:05.943Z,94007.53
2023-03-08T21:22:33.579Z,94001.34
2023-03-08T21:25:01.091Z,93999.41
2023-03-08T21:27:28.572Z,94001.22
2023-03-08T21:29:56.091Z,93982.34
2023-03-08T21:32:24.526Z,93983.97
2023-03-08T21:34:54.351Z,93973.28
2023-03-08T21:37:21.798Z,93972.88
2023-03-08T21:39:49.284Z,93972.47
2023-03-08T21:42:16.772Z,93979.06
2023-03-08T21:44:44.231Z,93985.59
2023-03-08T21:47:11.695Z,93990.53
2023-03-08T21:49:39.212Z,93983.56
2023-03-08T21:52:08.022Z,93992.78
2023-03-08T21:54:35.499Z,94017.38
2023-03-08T21:57:02.998Z,94008.06
2023-03-08T21:59:30.482Z,94009.06
2023-03-08T22:01:58.793Z,94009.44
2023-03-08T22:04:27.600Z,94012.91
2023-03-08T22:06:55.597Z,94005.19
2023-03-08T22:09:26.774Z,94001.53
2023-03-08T22:11:54.478Z,94007.63
2023-03-08T22:14:21.990Z,94011.19
2023-03-08T22:16:49.481Z,94014.13
2023-03-08T22:19:17.944Z,94014.72
2023-03-08T22:21:45.438Z,94016.75
2023-03-08T22:24:12.965Z,94012.44
2023-03-08T22:26:41.791Z,94023.25
2023-03-08T22:29:09.283Z,94021.47
2023-03-08T22:31:36.843Z,94020.25
2023-03-08T22:34:04.679Z,94027.78
2023-03-08T22:36:32.131Z,94023.72
2023-03-08T22:38:59.614Z,94031.41
2023-03-08T22:41:28.539Z,94030.81
2023-03-08T22:43:57.364Z,94024.66
2023-03-08T22:46:26.939Z,94025.88
2023-03-08T22:48:56.555Z,94019.19
2023-03-08T22:51:24.527Z,94021.19
2023-03-08T22:53:52.419Z,94024.72
2023-03-08T22:56:22.717Z,94032.41
2023-03-08T22:58:50.644Z,94029.16
2023-03-08T23:01:21.452Z,94035.63
2023-03-08T23:03:49.786Z,94029.16
2023-03-08T23:06:18.265Z,94033.59
2023-03-08T23:08:46.240Z,94035.28
2023-03-08T23:11:14.226Z,94054.03
2023-03-08T23:13:42.201Z,94044.25
2023-03-08T23:16:12.512Z,94058.50
2023-03-08T23:18:41.425Z,94067.66
2023-03-08T23:21:10.872Z,94073.75
2023-03-08T23:23:38.383Z,94068.25
2023-03-08T23:26:07.374Z,94077.97
2023-03-08T23:28:36.346Z,94077.56
2023-03-08T23:31:08.701Z,94072.53
2023-03-08T23:33:36.170Z,94048.72
2023-03-08T23:36:05.917Z,94049.94
2023-03-08T23:38:33.475Z,94048.34
2023-03-08T23:41:04.618Z,94052.00
2023-03-08T23:43:32.177Z,94043.84
2023-03-08T23:45:59.859Z,94045.34
2023-03-08T23:48:27.354Z,94022.22
2023-03-08T23:50:54.803Z,94022.59
2023-03-08T23:53:23.637Z,94021.56
2023-03-08T23:55:51.115Z,94015.84
2023-03-08T23:58:18.609Z,94017.34
